• Join FlightAware (Why Join?)
  • Login
  • US Flag 
04:10AM EDT


 

Airport Tracker/Info


-or-


 

Live Flight TrackerFlight Track Log ✈ N516QS ✈ 16-Apr-2013 ✈ EGGW / LTN - KMDW

Flight Track Log - Related Links

Times and Time Zones

All times are in EDT time to prevent confusion due to time zone crossing. See the N516QS flight status page for this flight to view local times or setup timezone preferences in your user account.

Time Position Orientation Groundspeed Altitude Reporting Facility
EDT Latitude Longitude Course Direction KTS MPH feet Rate Location/Type
06:19AM 55.6012 -17.0341 297° West  Level Estimated
06:20AM 55.6302 -17.2442 284° West  Level Estimated
06:21AM 55.6589 -17.4547 284° West  Level Estimated
06:22AM 55.6872 -17.6654 283° West  Level Estimated
06:23AM 55.7152 -17.8765 283° West  Level Estimated
06:24AM 55.7427 -18.0878 283° West  Level Estimated
06:25AM 55.7700 -18.2995 283° West  Level Estimated
06:26AM 55.7968 -18.5114 283° West  Level Estimated
06:27AM 55.8233 -18.7236 283° West  Level Estimated
06:28AM 55.8494 -18.9361 282° West  Level Estimated
06:29AM 55.8752 -19.1490 282° West  Level Estimated
06:30AM 55.9006 -19.3620 282° West  Level Estimated
06:31AM 55.9256 -19.5754 282° West  Level Estimated
06:32AM 55.9503 -19.7890 282° West  Level Estimated
06:33AM 55.9745 -20.0029 282° West  Level Estimated
06:34AM 55.9985 -20.2171 281° West  Level Estimated
06:35AM 56.0220 -20.4315 281° West  Level Estimated
06:36AM 56.0452 -20.6462 281° West  Level Estimated
06:37AM 56.0680 -20.8612 281° West  Level Estimated
06:38AM 56.0904 -21.0764 281° West  Level Estimated
06:39AM 56.1124 -21.2918 280° West  Level Estimated
06:40AM 56.1341 -21.5075 280° West  Level Estimated
06:41AM 56.1554 -21.7234 280° West  Level Estimated
06:42AM 56.1763 -21.9396 280° West  Level Estimated
06:43AM 56.1969 -22.1560 280° West  Level Estimated
06:44AM 56.2170 -22.3727 280° West  Level Estimated
06:45AM 56.2368 -22.5895 279° West  Level Estimated
06:46AM 56.2562 -22.8066 279° West  Level Estimated
06:46AM 60.0000 -20.0000 286° West 475 547 40,000  Level ETMS Enhanced Traffic Management System
06:47AM 56.2752 -23.0239 279° West  Level Estimated
06:48AM 56.2939 -23.2414 279° West  Level Estimated
06:49AM 56.3121 -23.4592 279° West  Level Estimated
06:50AM 56.3300 -23.6771 279° West  Level Estimated
06:51AM 56.3475 -23.8952 278° West  Level Estimated
06:52AM 60.2398 -21.7926 284° West 475 547 40,000  Level FlightAware Transoceanic
06:53AM 60.2720 -22.0508 284° West 475 547 40,000  Level FlightAware Transoceanic
06:54AM 60.3038 -22.3095 284° West 475 547 40,000  Level FlightAware Transoceanic
06:55AM 60.3351 -22.5686 284° West 475 547 40,000  Level FlightAware Transoceanic
06:56AM 60.3658 -22.8283 283° West 475 547 40,000  Level FlightAware Transoceanic
06:57AM 60.3961 -23.0885 283° West 475 547 40,000  Level FlightAware Transoceanic
06:58AM 60.4258 -23.3491 283° West 475 547 40,000  Level FlightAware Transoceanic
06:59AM 60.4551 -23.6102 283° West 475 547 40,000  Level FlightAware Transoceanic
07:00AM 60.4838 -23.8718 282° West 475 547 40,000  Level FlightAware Transoceanic
07:01AM 60.5120 -24.1339 282° West 475 547 40,000  Level FlightAware Transoceanic
07:02AM 60.5397 -24.3964 282° West 475 547 40,000  Level FlightAware Transoceanic
07:03AM 60.5668 -24.6593 282° West 475 547 40,000  Level FlightAware Transoceanic
07:04AM 60.5935 -24.9227 282° West 475 547 40,000  Level FlightAware Transoceanic
07:05AM 60.6197 -25.1865 281° West 475 547 40,000  Level FlightAware Transoceanic
07:06AM 60.6453 -25.4507 281° West 475 547 40,000  Level FlightAware Transoceanic
07:07AM 60.6704 -25.7154 281° West 475 547 40,000  Level FlightAware Transoceanic
07:08AM 60.6949 -25.9804 281° West 475 547 40,000  Level FlightAware Transoceanic
07:09AM 60.7190 -26.2459 280° West 475 547 40,000  Level FlightAware Transoceanic
07:10AM 60.7425 -26.5117 280° West 475 547 40,000  Level FlightAware Transoceanic
07:11AM 60.7655 -26.7780 280° West 475 547 40,000  Level FlightAware Transoceanic
07:12AM 60.7880 -27.0446 280° West 475 547 40,000  Level FlightAware Transoceanic
07:13AM 60.8099 -27.3116 279° West 475 547 40,000  Level FlightAware Transoceanic
07:14AM 60.8313 -27.5789 279° West 475 547 40,000  Level FlightAware Transoceanic
07:15AM 60.8522 -27.8466 279° West 475 547 40,000  Level FlightAware Transoceanic
07:16AM 60.8726 -28.1147 279° West 475 547 40,000  Level FlightAware Transoceanic
07:17AM 60.8924 -28.3831 279° West 475 547 40,000  Level FlightAware Transoceanic
07:18AM 60.9117 -28.6518 278° West 475 547 40,000  Level FlightAware Transoceanic
07:19AM 60.9304 -28.9208 278° West 475 547 40,000  Level FlightAware Transoceanic
07:20AM 60.9486 -29.1902 278° West 475 547 40,000  Level FlightAware Transoceanic
07:21AM 60.9663 -29.4598 278° West 475 547 40,000  Level FlightAware Transoceanic
07:22AM 60.9834 -29.7298 277° West 475 547 40,000  Level FlightAware Transoceanic
07:23AM 60.9988 -29.9797 277° West  Level FlightAware Approximate
07:24AM 61.0137 -30.2298 277° West  Level FlightAware Approximate
07:25AM 61.0067 -30.2106 274° West  Level FlightAware Approximate
07:26AM 61.0142 -30.4622 274° West  Level FlightAware Approximate
07:26AM 61.0000 -30.0000 274° West 484 557 40,000  Level ETMS Enhanced Traffic Management System
07:27AM 61.0213 -30.7139 273° West  Level FlightAware Approximate
07:28AM 61.0279 -30.9658 273° West  Level FlightAware Approximate
07:29AM 61.0340 -31.2177 273° West  Level FlightAware Approximate
07:30AM 61.0396 -31.4697 273° West  Level FlightAware Approximate
07:31AM 61.0448 -31.7218 273° West  Level FlightAware Approximate
07:32AM 61.0742 -32.7743 272° West 484 557 40,000  Level FlightAware Transoceanic
07:33AM 61.0785 -33.0523 272° West 484 557 40,000  Level FlightAware Transoceanic
07:34AM 61.0822 -33.3304 271° West 484 557 40,000  Level FlightAware Transoceanic
07:35AM 61.0854 -33.6086 271° West 484 557 40,000  Level FlightAware Transoceanic
07:36AM 61.0880 -33.8868 271° West 484 557 40,000  Level FlightAware Transoceanic
07:37AM 61.0900 -34.1651 271° West 484 557 40,000  Level FlightAware Transoceanic
07:38AM 61.0914 -34.4434 270° West 484 557 40,000  Level FlightAware Transoceanic
07:39AM 61.0923 -34.7217 270° West 484 557 40,000  Level FlightAware Transoceanic
07:40AM 61.0925 -35.0000 270° West 484 557 40,000  Level FlightAware Transoceanic
07:41AM 61.0923 -35.2783 270° West 484 557 40,000  Level FlightAware Transoceanic
07:42AM 61.0914 -35.5566 270° West 484 557 40,000  Level FlightAware Transoceanic
07:43AM 61.0900 -35.8349 269° West 484 557 40,000  Level FlightAware Transoceanic
07:44AM 61.0880 -36.1132 269° West 484 557 40,000  Level FlightAware Transoceanic
07:45AM 61.0854 -36.3914 269° West 484 557 40,000  Level FlightAware Transoceanic
07:46AM 61.0822 -36.6696 269° West 484 557 40,000  Level FlightAware Transoceanic
07:47AM 61.0785 -36.9477 268° West 484 557 40,000  Level FlightAware Transoceanic
07:48AM 61.0742 -37.2257 268° West 484 557 40,000  Level FlightAware Transoceanic
07:49AM 61.0694 -37.5037 268° West 484 557 40,000  Level FlightAware Transoceanic
07:50AM 61.0639 -37.7815 268° West 484 557 40,000  Level FlightAware Transoceanic
07:51AM 61.0579 -38.0593 267° West 484 557 40,000  Level FlightAware Transoceanic
07:52AM 61.0514 -38.3369 267° West 484 557 40,000  Level FlightAware Transoceanic
07:53AM 61.0442 -38.6145 267° West 484 557 40,000  Level FlightAware Transoceanic
07:54AM 61.0365 -38.8919 267° West 484 557 40,000  Level FlightAware Transoceanic
07:55AM 61.0282 -39.1691 266° West 484 557 40,000  Level FlightAware Transoceanic
07:56AM 61.0194 -39.4463 266° West 484 557 40,000  Level FlightAware Transoceanic
07:57AM 61.0100 -39.7232 266° West 484 557 40,000 600 Level FlightAware Transoceanic
07:58AM 61.0009 -39.9745 266° West  Level FlightAware Approximate
07:59AM 60.9915 -40.2257 266° West  Level FlightAware Approximate
08:00AM 60.9878 -40.1993 263° West  Level FlightAware Approximate
08:01AM 60.9721 -40.4491 263° West  Level FlightAware Approximate
08:01AM 61.0000 -40.0000 263° West 463 533 43,000  Level ETMS Enhanced Traffic Management System
08:02AM 60.9560 -40.6986 263° West  Level FlightAware Approximate
08:03AM 60.9394 -40.9478 262° West  Level FlightAware Approximate
08:04AM 60.9223 -41.1968 262° West  Level FlightAware Approximate
08:05AM 60.9048 -41.4455 262° West  Level FlightAware Approximate
08:06AM 60.8868 -41.6940 262° West  Level FlightAware Approximate
08:07AM 60.8362 -42.3593 261° West 463 533 43,000  Level FlightAware Transoceanic
08:08AM 60.8155 -42.6199 261° West 463 533 43,000  Level FlightAware Transoceanic
08:09AM 60.7942 -42.8801 260° West 463 533 43,000  Level FlightAware Transoceanic
08:10AM 60.7725 -43.1400 260° West 463 533 43,000  Level FlightAware Transoceanic
08:11AM 60.7503 -43.3996 260° West 463 533 43,000  Level FlightAware Transoceanic
08:12AM 60.7275 -43.6587 260° West 463 533 43,000  Level FlightAware Transoceanic
08:13AM 60.7043 -43.9175 259° West 463 533 43,000  Level FlightAware Transoceanic
08:14AM 60.6805 -44.1759 259° West 463 533 43,000  Level FlightAware Transoceanic
08:15AM 60.6563 -44.4340 259° West 463 533 43,000  Level FlightAware Transoceanic
08:16AM 60.6315 -44.6916 259° West 463 533 43,000  Level FlightAware Transoceanic
08:17AM 60.6063 -44.9488 259° West 463 533 43,000  Level FlightAware Transoceanic
08:18AM 60.5806 -45.2057 258° West 463 533 43,000  Level FlightAware Transoceanic
08:19AM 60.5544 -45.4621 258° West 463 533 43,000  Level FlightAware Transoceanic
08:20AM 60.5277 -45.7181 258° West 463 533 43,000  Level FlightAware Transoceanic
08:21AM 60.5005 -45.9737 258° West 463 533 43,000  Level FlightAware Transoceanic
08:22AM 60.4728 -46.2288 257° West 463 533 43,000  Level FlightAware Transoceanic
08:23AM 60.4446 -46.4836 257° West 463 533 43,000  Level FlightAware Transoceanic
08:24AM 60.4160 -46.7378 257° West 463 533 43,000  Level FlightAware Transoceanic
08:25AM 60.3868 -46.9916 257° West 463 533 43,000  Level FlightAware Transoceanic
08:26AM 60.3572 -47.2450 257° West 463 533 43,000  Level FlightAware Transoceanic
08:27AM 60.3271 -47.4979 256° West 463 533 43,000  Level FlightAware Transoceanic
08:28AM 60.2965 -47.7503 256° West 463 533 43,000  Level FlightAware Transoceanic
08:29AM 60.2655 -48.0022 256° West 463 533 43,000  Level FlightAware Transoceanic
08:30AM 60.2339 -48.2537 256° West 463 533 43,000  Level FlightAware Transoceanic
08:31AM 60.2019 -48.5047 255° West 463 533 43,000  Level FlightAware Transoceanic
08:32AM 60.1694 -48.7552 255° West 463 533 43,000  Level FlightAware Transoceanic
08:33AM 60.1365 -49.0051 255° West 463 533 43,000  Level FlightAware Transoceanic
08:34AM 60.1031 -49.2546 255° West 463 533 43,000  Level FlightAware Transoceanic
08:35AM 60.0692 -49.5036 255° West 463 533 43,000  Level FlightAware Transoceanic
08:36AM 60.0348 -49.7521 254° West 463 533 43,000  Level FlightAware Transoceanic
08:37AM 60.0018 -49.9874 254° West  Level FlightAware Approximate
08:38AM 59.9683 -50.2223 254° West  Level FlightAware Approximate
08:39AM 59.9681 -50.2085 253° West  Level FlightAware Approximate
08:40AM 59.9319 -50.4416 253° West  Level FlightAware Approximate
08:40AM 60.0000 -50.0000 253° West 447 514 43,000  Level ETMS Enhanced Traffic Management System
08:41AM 59.8954 -50.6741 253° West  Level FlightAware Approximate
08:42AM 59.8584 -50.9062 252° West  Level FlightAware Approximate
08:43AM 59.8211 -51.1377 252° West  Level FlightAware Approximate
08:44AM 59.7833 -51.3687 252° West  Level FlightAware Approximate
08:45AM 59.7451 -51.5991 252° West  Level FlightAware Approximate
08:46AM 59.6969 -51.8864 251° West 447 514 43,000  Level FlightAware Transoceanic
08:47AM 59.6571 -52.1197 251° West 447 514 43,000  Level FlightAware Transoceanic
08:48AM 59.6169 -52.3525 251° West 447 514 43,000  Level FlightAware Transoceanic
08:49AM 59.5763 -52.5848 251° West 447 514 43,000  Level FlightAware Transoceanic
08:50AM 59.5353 -52.8165 251° West 447 514 43,000  Level FlightAware Transoceanic
08:51AM 59.4939 -53.0476 250° West 447 514 43,000  Level FlightAware Transoceanic
08:52AM 59.4520 -53.2781 250° West 447 514 43,000  Level FlightAware Transoceanic
08:53AM 59.4098 -53.5081 250° West 447 514 43,000  Level FlightAware Transoceanic
08:54AM 59.3672 -53.7375 250° West 447 514 43,000  Level FlightAware Transoceanic
08:55AM 59.3241 -53.9663 250° West 447 514 43,000  Level FlightAware Transoceanic
08:56AM 59.2807 -54.1945 249° West 447 514 43,000  Level FlightAware Transoceanic
08:57AM 59.2369 -54.4222 249° West 447 514 43,000  Level FlightAware Transoceanic
08:58AM 59.1926 -54.6492 249° West 447 514 43,000  Level FlightAware Transoceanic
08:59AM 59.1480 -54.8757 249° West 447 514 43,000  Level FlightAware Transoceanic
09:00AM 59.1030 -55.1016 249° West 447 514 43,000  Level FlightAware Transoceanic
09:01AM 59.0576 -55.3269 248° West 447 514 43,000  Level FlightAware Transoceanic
09:02AM 59.0118 -55.5516 248° West 447 514 43,000  Level FlightAware Transoceanic
09:03AM 58.9656 -55.7756 248° West 447 514 43,000  Level FlightAware Transoceanic
09:04AM 58.9190 -55.9991 248° West 447 514 43,000  Level FlightAware Transoceanic
09:05AM 58.8721 -56.2220 248° West 447 514 43,000  Level FlightAware Transoceanic
09:06AM 58.8247 -56.4443 248° West 447 514 43,000  Level FlightAware Transoceanic
09:07AM 58.7770 -56.6659 247° West 447 514 43,000  Level FlightAware Transoceanic
09:08AM 58.7289 -56.8870 247° West 447 514 43,000  Level FlightAware Transoceanic
09:09AM 58.6804 -57.1074 247° West 447 514 43,000  Level FlightAware Transoceanic
09:10AM 58.6316 -57.3273 247° West 447 514 43,000  Level FlightAware Transoceanic
09:11AM 58.5823 -57.5465 247° West 447 514 43,000  Level FlightAware Transoceanic
09:12AM 58.5327 -57.7651 246° West 447 514 43,000  Level FlightAware Transoceanic
09:13AM 58.4828 -57.9830 246° West 447 514 43,000  Level FlightAware Transoceanic
09:14AM 58.4324 -58.2004 246° West 447 514 43,000  Level FlightAware Transoceanic
09:15AM 58.3817 -58.4171 246° West 447 514 43,000  Level FlightAware Transoceanic
09:16AM 58.3307 -58.6332 246° West 447 514 43,000  Level FlightAware Transoceanic
09:17AM 58.2792 -58.8487 245° Southwest 447 514 43,000  Level FlightAware Transoceanic
09:17AM 58.3000 -58.7500 240° Southwest 450 518 43,000  Level Gander Center
09:18AM 58.2274 -59.0636 245° Southwest 447 514 43,000  Level FlightAware Transoceanic
09:18AM 58.2500 -58.9667 246° West 450 518 43,000  Level Gander Center
09:19AM 58.1753 -59.2778 245° Southwest 447 514 43,000  Level FlightAware Transoceanic
09:19AM 58.2000 -59.2000 248° West 450 518 43,000  Level Gander Center
09:20AM 58.1228 -59.4914 245° Southwest 447 514 43,000  Level FlightAware Transoceanic
09:20AM 58.1333 -59.4167 240° Southwest 460 529 43,000  Level Gander Center
09:21AM 58.0699 -59.7043 245° Southwest 447 514 43,000  Level FlightAware Transoceanic
09:21AM 58.1000 -59.6500 255° West 460 529 43,000  Level Gander Center
09:22AM 58.0073 -59.9047 240° Southwest  Level Estimated
09:22AM 58.0333 -59.8333 236° Southwest 460 529 43,000  Level Gander Center
09:23AM 57.9833 -60.0500 247° West 450 518 43,000  Level Gander Center
09:24AM 57.9167 -60.2833 242° Southwest 450 518 43,000  Level Gander Center
09:25AM 57.8667 -60.5000 247° West 450 518 43,000  Level Gander Center
09:26AM 57.8000 -60.6833 236° Southwest 440 506 43,000  Level Gander Center
09:27AM 57.7333 -60.9000 240° Southwest 450 518 43,000  Level Gander Center
09:28AM 57.6833 -61.1000 245° Southwest 440 506 43,000  Level Gander Center
09:29AM 57.6167 -61.3167 240° Southwest 450 518 43,000  Level Gander Center
09:29AM 57.5833 -61.3500 208° Southwest 450 518 43,000  Level Montreal Center
09:30AM 57.5500 -61.5000 248° West 450 518 43,000  Level Gander Center
09:31AM 57.4833 -61.6833 236° Southwest 450 518 43,000  Level Gander Center
09:32AM 57.4333 -61.9000 247° West 440 506 43,000  Level Gander Center
09:33AM 57.3667 -62.1167 240° Southwest 440 506 43,000  Level Gander Center
09:34AM 57.3000 -62.3000 236° Southwest 450 518 43,000  Level Gander Center
09:35AM 57.2500 -62.5167 247° West 450 518 43,000  Level Gander Center
09:36AM 57.1833 -62.7000 236° Southwest 450 518 43,000  Level Gander Center
09:37AM 57.1167 -62.9167 241° Southwest 450 518 43,000  Level Gander Center
09:38AM 57.0333 -63.0833 227° Southwest 450 518 43,000  Level Gander Center
09:39AM 56.9833 -63.2667 243° Southwest 450 518 43,000  Level Gander Center
09:40AM 56.9167 -63.4833 241° Southwest 450 518 43,000  Level Gander Center
09:41AM 56.8500 -63.6667 236° Southwest 450 518 43,000  Level Gander Center
09:42AM 56.8000 -63.8667 246° West 450 518 43,000  Level Gander Center
09:42AM 56.7500 -63.9500 222° Southwest 450 518 43,000  Level Montreal Center
09:43AM 56.6667 -64.1333 230° Southwest 440 506 43,000  Level Montreal Center
09:44AM 56.6500 -64.2500 255° West 450 518 43,000  Level Gander Center
09:44AM 56.6000 -64.3333 223° Southwest 440 506 43,000  Level Montreal Center
09:45AM 56.5333 -64.5167 237° Southwest 440 506 43,000  Level Montreal Center
09:46AM 56.5333 -64.6500 270° West 450 518 43,000  Level Gander Center
09:46AM 56.4833 -64.7167 216° Southwest 450 518 43,000  Level Montreal Center
09:47AM 56.4167 -64.8833 234° Southwest 450 518 43,000  Level Montreal Center
09:48AM 56.3833 -65.0167 246° West 450 518 43,000  Level Gander Center
09:48AM 56.3500 -65.0833 228° Southwest 440 506 43,000  Level Montreal Center
09:49AM 56.2833 -65.2667 237° Southwest 440 506 43,000  Level Montreal Center
09:50AM 56.2167 -65.4667 239° Southwest 440 506 43,000  Level Montreal Center
09:51AM 56.1500 -65.6333 234° Southwest 440 506 43,000  Level Montreal Center
09:52AM 56.1167 -65.7833 248° West 450 518 43,000  Level Gander Center
09:52AM 56.0667 -65.8000 191° South 440 506 43,000  Level Montreal Center
09:53AM 56.0500 -65.9500 259° West 440 506 43,000  Level Gander Center
09:54AM 55.9833 -66.1167 234° Southwest 440 506 43,000  Level Gander Center
09:54AM 55.9333 -66.2000 223° Southwest 440 506 43,000  Level Montreal Center
09:55AM 55.8667 -66.3667 235° Southwest 440 506 43,000  Level Montreal Center
09:56AM 55.8000 -66.5667 239° Southwest 430 495 43,000  Level Montreal Center
09:57AM 55.7167 -66.7333 228° Southwest 430 495 43,000  Level Montreal Center
09:58AM 55.6667 -66.9000 242° Southwest 440 506 43,000  Level Montreal Center
09:59AM 55.6333 -67.0333 246° West 440 506 43,000  Level Gander Center
09:59AM 55.6000 -67.1000 229° Southwest 430 495 43,000  Level Montreal Center
10:00AM 55.5167 -67.2667 229° Southwest 450 518 43,000  Level Montreal Center
10:01AM 55.4500 -67.4500 237° Southwest 440 506 43,000  Level Montreal Center
10:02AM 55.3833 -67.6167 235° Southwest 440 506 43,000  Level Montreal Center
10:03AM 55.3333 -67.8167 246° West 450 518 43,000  Level Montreal Center
10:04AM 55.2500 -67.9833 229° Southwest 440 506 43,000  Level Montreal Center
10:06AM 55.1333 -68.2667 234° Southwest 440 506 43,000  Level Gander Center
10:07AM 55.0833 -68.4333 242° Southwest 440 506 43,000  Level Gander Center
10:07AM 55.0333 -68.5167 224° Southwest 440 506 43,000  Level Montreal Center
10:08AM 54.9667 -68.7167 240° Southwest 430 495 43,000  Level Montreal Center
10:09AM 54.8833 -68.8667 226° Southwest 430 495 43,000  Level Montreal Center
10:10AM 54.8333 -69.0333 243° Southwest 430 495 43,000  Level Montreal Center
10:11AM 54.7500 -69.1833 226° Southwest 430 495 43,000  Level Montreal Center
10:12AM 54.6833 -69.3833 240° Southwest 430 495 43,000  Level Montreal Center
10:13AM 54.6167 -69.5333 233° Southwest 430 495 43,000  Level Montreal Center
10:14AM 54.5500 -69.7167 238° Southwest 430 495 43,000  Level Montreal Center
10:15AM 54.4667 -69.8667 226° Southwest 430 495 43,000  Level Montreal Center
10:16AM 54.3833 -70.0333 229° Southwest 430 495 43,000  Level Montreal Center
10:17AM 54.3333 -70.2167 245° Southwest 430 495 43,000  Level Montreal Center
10:18AM 54.2500 -70.3667 226° Southwest 440 506 43,000  Level Montreal Center
10:19AM 54.1833 -70.5500 238° Southwest 430 495 43,000  Level Montreal Center
10:20AM 54.1000 -70.7000 227° Southwest 430 495 43,000  Level Montreal Center
10:21AM 54.0167 -70.8667 230° Southwest 430 495 43,000  Level Montreal Center
10:22AM 53.9500 -71.0333 236° Southwest 440 506 43,000  Level Montreal Center
10:23AM 53.8667 -71.2167 232° Southwest 440 506 43,000  Level Montreal Center
10:24AM 53.8000 -71.3667 233° Southwest 440 506 43,000  Level Montreal Center
10:25AM 53.7333 -71.5500 238° Southwest 440 506 43,000  Level Montreal Center
10:26AM 53.6500 -71.7000 227° Southwest 440 506 43,000  Level Montreal Center
10:27AM 53.5667 -71.8833 233° Southwest 440 506 43,000  Level Montreal Center
10:28AM 53.5167 -72.0333 241° Southwest 440 506 43,000  Level Montreal Center
10:29AM 53.4333 -72.1833 227° Southwest 440 506 43,000  Level Montreal Center
10:30AM 53.3500 -72.3500 230° Southwest 440 506 43,000  Level Montreal Center
10:31AM 53.2667 -72.5000 227° Southwest 440 506 43,000  Level Montreal Center
10:32AM 53.2000 -72.6833 239° Southwest 440 506 43,000  Level Montreal Center
10:33AM 53.1333 -72.8167 230° Southwest 440 506 43,100  Climbing Montreal Center
10:34AM 53.0500 -73.0000 233° Southwest 440 506 43,100  Level Montreal Center
10:35AM 52.9667 -73.1333 224° Southwest 440 506 43,100  Level Montreal Center
10:36AM 52.8833 -73.3167 233° Southwest 440 506 43,100 -60 Level Montreal Center
10:37AM 52.8167 -73.4833 237° Southwest 440 506 43,000 -60 Descending Montreal Center
10:38AM 52.7333 -73.6333 227° Southwest 440 506 43,000  Level Montreal Center
10:39AM 52.6500 -73.8000 231° Southwest 440 506 43,000  Level Montreal Center
10:40AM 52.5667 -73.9500 228° Southwest 440 506 43,000  Level Montreal Center
10:41AM 52.5000 -74.0833 231° Southwest 430 495 43,000  Level Montreal Center
10:42AM 52.4167 -74.2500 231° Southwest 430 495 43,000  Level Montreal Center
10:43AM 52.3333 -74.4000 228° Southwest 440 506 43,000  Level Montreal Center
10:44AM 52.2500 -74.5667 231° Southwest 430 495 43,000  Level Montreal Center
10:45AM 52.1667 -74.7000 224° Southwest 440 506 43,000  Level Montreal Center
10:46AM 52.1000 -74.8333 231° Southwest 430 495 43,000  Level Montreal Center
10:47AM 52.0167 -75.0000 231° Southwest 440 506 43,000  Level Montreal Center
10:48AM 51.9333 -75.1500 228° Southwest 430 495 43,000  Level Montreal Center
10:49AM 51.8500 -75.3167 231° Southwest 430 495 43,000  Level Montreal Center
10:50AM 51.7833 -75.4500 231° Southwest 430 495 43,000  Level Montreal Center
10:51AM 51.7000 -75.6167 231° Southwest 430 495 43,000  Level Montreal Center
10:52AM 51.6167 -75.7500 225° Southwest 430 495 43,000  Level Montreal Center
10:53AM 51.5333 -75.9167 231° Southwest 430 495 43,000  Level Montreal Center
10:54AM 51.4667 -76.0500 231° Southwest 430 495 43,000  Level Montreal Center
10:55AM 51.3833 -76.2000 228° Southwest 430 495 43,000  Level Montreal Center
10:56AM 51.3000 -76.3500 228° Southwest 440 506 43,000  Level Montreal Center
10:57AM 51.2167 -76.5000 228° Southwest 440 506 43,000  Level Montreal Center
10:58AM 51.1333 -76.6333 225° Southwest 440 506 43,000  Level Montreal Center
10:59AM 51.0667 -76.7667 232° Southwest 440 506 43,000  Level Montreal Center
11:00AM 50.9833 -76.9333 232° Southwest 440 506 43,000  Level Montreal Center
11:01AM 50.9000 -77.0667 225° Southwest 440 506 43,000  Level Montreal Center
11:03AM 50.8013 -77.2542 230° Southwest  Level FlightAware Approximate
11:03AM 50.7333 -77.3500 230° Southwest 440 506 43,000  Level Montreal Center
11:04AM 50.6500 -77.5000 229° Southwest 440 506 43,000  Level Montreal Center
11:05AM 50.5667 -77.6333 225° Southwest 440 506 43,000  Level Montreal Center
11:06AM 50.4833 -77.7833 229° Southwest 440 506 43,000  Level Montreal Center
11:07AM 50.4000 -77.9167 226° Southwest 440 506 43,000  Level Montreal Center
11:08AM 50.3333 -78.0667 235° Southwest 440 506 43,000  Level Montreal Center
11:09AM 50.2333 -78.2000 220° Southwest 440 506 43,000  Level Montreal Center
11:10AM 50.1500 -78.3500 229° Southwest 430 495 43,000  Level Montreal Center
11:11AM 50.0667 -78.5000 229° Southwest 440 506 43,000  Level Montreal Center
11:12AM 50.0000 -78.6333 232° Southwest 430 495 43,000  Level Montreal Center
11:13AM 49.9000 -78.7667 221° Southwest 440 506 43,000  Level Montreal Center
11:14AM 49.8167 -78.9167 229° Southwest 440 506 43,000  Level Montreal Center
11:15AM 49.7333 -79.0333 222° Southwest 430 495 43,000  Level Montreal Center
11:16AM 49.6667 -79.1833 236° Southwest 430 495 43,000  Level Montreal Center
11:17AM 49.5667 -79.3167 221° Southwest 430 495 43,000  Level Montreal Center
11:18AM 49.4833 -79.4333 222° Southwest 440 506 43,000  Level Montreal Center
11:19AM 49.3667 -79.5333 209° Southwest 440 506 43,000  Level Montreal Center
11:20AM 49.2833 -79.6500 222° Southwest 440 506 43,000  Level Montreal Center
11:21AM 49.1667 -79.7500 209° Southwest 440 506 43,000  Level Montreal Center
11:22AM 49.0667 -79.8500 213° Southwest 430 495 43,000  Level Montreal Center
11:23AM 48.9667 -79.9667 217° Southwest 430 495 43,000  Level Montreal Center
11:24AM 48.8667 -80.0500 209° Southwest 440 506 43,000  Level Montreal Center
11:25AM 48.7667 -80.1500 213° Southwest 440 506 43,000  Level Montreal Center
11:26AM 48.6667 -80.2667 218° Southwest 440 506 43,000  Level Montreal Center
11:27AM 48.5667 -80.3667 214° Southwest 440 506 43,000  Level Montreal Center
11:28AM 48.4500 -80.4833 214° Southwest 440 506 43,000  Level Montreal Center
11:29AM 48.3500 -80.5667 209° Southwest 440 506 43,000  Level Montreal Center
11:30AM 48.2667 -80.6833 223° Southwest 440 506 43,000  Level Montreal Center
11:31AM 48.1333 -80.7833 207° Southwest 440 506 43,000  Level Montreal Center
11:32AM 48.1000 -80.8000 198° South 440 506 43,000  Level Toronto Center
11:33AM 47.9833 -80.9000 210° Southwest 440 506 43,000  Level Toronto Center
11:34AM 47.8833 -81.0000 214° Southwest 440 506 43,000  Level Toronto Center
11:35AM 47.7833 -81.1000 214° Southwest 440 506 43,000  Level Toronto Center
11:36AM 47.6833 -81.2167 218° Southwest 440 506 43,000  Level Toronto Center
11:37AM 47.5833 -81.3167 214° Southwest 440 506 43,000  Level Toronto Center
11:38AM 47.4833 -81.4000 209° Southwest 440 506 43,000  Level Toronto Center
11:39AM 47.3833 -81.5000 214° Southwest 440 506 43,000  Level Toronto Center
11:40AM 47.2833 -81.6000 214° Southwest 440 506 43,000  Level Toronto Center
11:41AM 47.1667 -81.6833 206° Southwest 450 518 43,000  Level Toronto Center
11:42AM 47.0667 -81.7833 214° Southwest 450 518 43,000  Level Toronto Center
11:43AM 46.9667 -81.9000 219° Southwest 440 506 43,000  Level Toronto Center
11:44AM 46.8500 -82.0000 210° Southwest 440 506 43,000  Level Toronto Center
11:44AM 46.8167 -82.0833 240° Southwest 440 506 43,000  Level Montreal Center
11:45AM 46.7167 -82.1667 210° Southwest 440 506 43,000  Level Montreal Center
11:46AM 46.6500 -82.1833 190° South 440 506 43,000  Level Toronto Center
11:47AM 46.5500 -82.2667 210° Southwest 430 495 43,000  Level Toronto Center
11:48AM 46.4500 -82.3667 215° Southwest 430 495 43,000  Level Toronto Center
11:49AM 46.3500 -82.4500 210° Southwest 440 506 43,000  Level Toronto Center
11:50AM 46.2500 -82.5500 215° Southwest 440 506 43,000  Level Toronto Center
11:51AM 46.1500 -82.6333 210° Southwest 440 506 43,000  Level Toronto Center
11:52AM 46.0333 -82.7500 215° Southwest 440 506 43,000  Level Toronto Center
11:53AM 45.9333 -82.8500 215° Southwest 450 518 43,000  Level Toronto Center
11:55AM 45.7561 -83.0175 213° Southwest 439 505 43,000  Level Minneapolis Center
11:56AM 45.6339 -83.1239 211° Southwest 433 498 43,000  Level Minneapolis Center
11:57AM 45.5278 -83.2169 212° Southwest 439 505 43,000  Level Minneapolis Center
11:58AM 45.4433 -83.2911 212° Southwest 443 510 43,000  Level Minneapolis Center
11:59AM 45.3161 -83.4022 212° Southwest 446 513 43,000  Level Minneapolis Center
12:00PM 45.2106 -83.4928 211° Southwest 445 512 43,000  Level Minneapolis Center
12:01PM 45.1075 -83.5833 212° Southwest 438 504 43,000  Level Minneapolis Center
12:02PM 45.0028 -83.6731 211° Southwest 439 505 43,000  Level Minneapolis Center
12:03PM 44.8981 -83.7628 211° Southwest 439 505 43,000  Level Minneapolis Center
12:04PM 44.7731 -83.8719 212° Southwest 440 506 43,000  Level Minneapolis Center
12:05PM 44.6675 -83.9611 211° Southwest 442 509 43,000  Level Minneapolis Center
12:06PM 44.5625 -84.0500 211° Southwest 441 507 43,000  Level Minneapolis Center
12:07PM 44.4564 -84.1383 211° Southwest 441 507 43,000  Level Minneapolis Center
12:08PM 44.3522 -84.2264 211° Southwest 440 506 43,000 -540 Level Minneapolis Center
12:09PM 44.2475 -84.3144 211° Southwest 439 505 41,900 -1,140 Descending Minneapolis Center
12:10PM 44.1425 -84.4011 211° Southwest 438 504 40,700 -1,140 Descending Minneapolis Center
12:11PM 44.0450 -84.4825 211° Southwest 414 476 39,600 -1,080 Descending Minneapolis Center
12:12PM 43.9394 -84.5694 211° Southwest 412 474 38,500 -1,020 Descending Minneapolis Center
12:15PM 43.7214 -84.7494 211° Southwest 383 441 36,100 -1,020 Descending Chicago Center
12:16PM 43.6264 -84.8256 210° Southwest 393 452 35,000 -1,080 Descending Chicago Center
12:17PM 43.5300 -84.9042 211° Southwest 398 458 34,000 -1,140 Descending Minneapolis Center
12:18PM 43.4122 -85.0000 211° Southwest 406 467 32,700 -1,020 Descending Minneapolis Center
12:19PM 43.3136 -85.0789 210° Southwest 409 471 32,000 -360 Descending Minneapolis Center
12:20PM 43.2133 -85.1572 210° Southwest 411 473 32,000  Level Minneapolis Center
12:20PM 43.2133 -85.1572 210° Southwest 412 474 32,000  Level Chicago Center
12:21PM 43.1017 -85.2147 201° Southwest 426 490 32,000  Level Chicago Center
12:22PM 42.9919 -85.2731 201° Southwest 424 488 32,000  Level Chicago Center
12:24PM 42.7664 -85.3925 201° Southwest 432 497 32,000  Level Minneapolis Center
12:25PM 42.6519 -85.4508 201° Southwest 436 502 32,000 -720 Level Chicago Center
12:26PM 42.5383 -85.5103 201° Southwest 435 501 30,500 -1,860 Descending Chicago Center
12:27PM 42.4200 -85.6197 214° Southwest 430 495 28,200 -2,220 Descending Chicago Center
12:28PM 42.3283 -85.7192 219° Southwest 425 489 26,000 -2,100 Descending Chicago Center
12:29PM 42.2450 -85.8131 220° Southwest 400 460 24,000 -1,860 Descending Chicago Center
12:30PM 42.1506 -85.8828 209° Southwest 394 453 22,300 -1,020 Descending Chicago Center
12:31PM 42.0408 -85.9103 191° South 406 467 22,000 -180 Descending Chicago Center
12:32PM 41.9303 -85.8569 160° South 383 441 22,000 -60 Level Chicago Center
12:33PM 41.8400 -85.8053 157° South 360 414 21,900 -900 Descending Chicago Center
12:34PM 41.7506 -85.7553 157° South 353 406 20,200 -1,800 Descending Chicago Center
12:35PM 41.6667 -85.7469 176° South 318 366 18,300 -1,980 Descending Chicago Center
12:36PM 41.6044 -85.8394 228° Southwest 296 341 16,200 -1,620 Descending Chicago Center
12:37PM 41.5589 -85.9456 240° Southwest 322 371 15,000 -1,140 Descending Chicago Center
12:38PM 41.5253 -86.0586 248° West 330 380 13,900 -1,080 Descending Chicago Center
12:39PM 41.5228 -86.1825 268° West 334 384 12,800 -1,080 Descending Chicago Center
12:40PM 41.5231 -86.3031 270° West 327 376 11,800 -1,080 Descending Chicago Center
12:41PM 41.5228 -86.4181 270° West 313 360 10,600 -900 Descending Chicago Center
12:42PM 41.4875 -86.5264 247° West 287 330 10,000 -300 Descending Chicago Center
12:43PM 41.4503 -86.6075 239° Southwest 246 283 10,000  Level Chicago Center
12:44PM 41.4606 -86.6950 279° West 240 276 10,000 -300 Level Chicago Center
12:45PM 41.4708 -86.7783 279° West 241 277 9,400 -780 Descending Chicago Center
12:47PM 41.4819 -86.8678 279° West 245 282 8,500 -900 Descending Chicago Center
12:48PM 41.4961 -86.9772 280° West 251 289 7,600 -900 Descending Chicago Center
12:49PM 41.5072 -87.0664 279° West 246 283 6,700 -900 Descending Chicago Center
12:49PM 41.5333 -87.1500 293° West 254 292 6,000 -540 Descending Chicago TRACON
12:51PM 41.5667 -87.2333 298° West 252 290 5,700 -540 Descending Chicago TRACON
12:51PM 41.5833 -87.3167 285° West 249 287 5,000 -840 Descending Chicago TRACON
12:52PM 41.6167 -87.4000 298° West 248 285 4,200 -720 Descending Chicago TRACON
12:53PM 41.6119 -87.4075 230° Southwest 247 284 4,100 -180 Descending Chicago Center
12:54PM 41.6414 -87.5069 292° West 244 281 4,000 -60 Descending Chicago Center
12:55PM 41.6611 -87.5744 291° West 222 255 4,000 -360 Level Chicago Center
12:56PM 41.6889 -87.6206 309° West 184 212 3,300 -840 Descending Chicago Center
12:56PM 41.7167 -87.6500 322° Northwest 165 190 2,600 -960 Descending Chicago TRACON
12:57PM 41.7333 -87.6833 304° West 136 157 1,800 -840 Descending Chicago TRACON
12:58PM 41.7667 -87.7167 323° Northwest 122 140 1,100 -720 Descending Chicago TRACON
01:01PM 41.7833 -87.7500 331° Northwest  Level FlightAware Approximate